sensor_id;sensor_type;location;lat;lon;timestamp;P1;durP1;ratioP1;P2;durP2;ratioP2
48667;SDS011;34453;52.198;5.004;2024-03-23T00:52:14;29.70;;;9.23;;
48667;SDS011;34453;52.198;5.004;2024-03-23T00:54:40;23.45;;;7.90;;
48667;SDS011;34453;52.198;5.004;2024-03-23T00:57:05;29.23;;;8.75;;
48667;SDS011;34453;52.198;5.004;2024-03-23T00:59:30;40.33;;;8.30;;
48667;SDS011;34453;52.198;5.004;2024-03-23T01:01:56;24.98;;;8.85;;
48667;SDS011;34453;52.198;5.004;2024-03-23T01:04:21;26.83;;;8.75;;
48667;SDS011;34453;52.198;5.004;2024-03-23T01:06:47;35.28;;;8.73;;
48667;SDS011;34453;52.198;5.004;2024-03-23T01:09:12;37.80;;;8.35;;
48667;SDS011;34453;52.198;5.004;2024-03-23T01:11:38;35.92;;;8.10;;
48667;SDS011;34453;52.198;5.004;2024-03-23T01:14:04;20.17;;;7.40;;
48667;SDS011;34453;52.198;5.004;2024-03-23T01:16:30;25.58;;;7.97;;
48667;SDS011;34453;52.198;5.004;2024-03-23T01:18:55;22.05;;;7.85;;
48667;SDS011;34453;52.198;5.004;2024-03-23T01:21:20;32.65;;;8.50;;
48667;SDS011;34453;52.198;5.004;2024-03-23T01:23:46;26.88;;;7.00;;
48667;SDS011;34453;52.198;5.004;2024-03-23T01:26:11;23.08;;;7.32;;
48667;SDS011;34453;52.198;5.004;2024-03-23T01:28:37;20.38;;;7.45;;
48667;SDS011;34453;52.198;5.004;2024-03-23T01:31:02;23.42;;;7.43;;
48667;SDS011;34453;52.198;5.004;2024-03-23T01:33:27;36.53;;;8.25;;
48667;SDS011;34453;52.198;5.004;2024-03-23T01:35:53;21.35;;;7.18;;
48667;SDS011;34453;52.198;5.004;2024-03-23T01:38:18;25.85;;;7.55;;
48667;SDS011;34453;52.198;5.004;2024-03-23T01:40:43;25.83;;;7.32;;
48667;SDS011;34453;52.198;5.004;2024-03-23T01:43:09;31.85;;;8.13;;
48667;SDS011;34453;52.198;5.004;2024-03-23T01:45:34;23.65;;;7.95;;
48667;SDS011;34453;52.198;5.004;2024-03-23T01:48:00;29.92;;;8.18;;
48667;SDS011;34453;52.198;5.004;2024-03-23T01:50:26;17.63;;;8.10;;
48667;SDS011;34453;52.198;5.004;2024-03-23T01:52:52;32.22;;;7.97;;
48667;SDS011;34453;52.198;5.004;2024-03-23T01:55:18;30.40;;;7.30;;
48667;SDS011;34453;52.198;5.004;2024-03-23T01:57:43;26.25;;;8.13;;
48667;SDS011;34453;52.198;5.004;2024-03-23T02:00:09;38.97;;;10.25;;
48667;SDS011;34453;52.198;5.004;2024-03-23T02:02:40;28.52;;;7.20;;
48667;SDS011;34453;52.198;5.004;2024-03-23T02:05:05;25.90;;;8.40;;
48667;SDS011;34453;52.198;5.004;2024-03-23T02:07:31;27.98;;;7.10;;
48667;SDS011;34453;52.198;5.004;2024-03-23T02:09:56;30.77;;;9.05;;
48667;SDS011;34453;52.198;5.004;2024-03-23T02:12:21;30.10;;;7.75;;
48667;SDS011;34453;52.198;5.004;2024-03-23T02:14:47;25.88;;;8.63;;
48667;SDS011;34453;52.198;5.004;2024-03-23T02:17:12;16.75;;;7.32;;
48667;SDS011;34453;52.198;5.004;2024-03-23T02:19:38;31.55;;;6.63;;
48667;SDS011;34453;52.198;5.004;2024-03-23T02:22:03;36.45;;;7.30;;
48667;SDS011;34453;52.198;5.004;2024-03-23T02:24:29;30.63;;;7.93;;
48667;SDS011;34453;52.198;5.004;2024-03-23T02:26:55;27.92;;;5.75;;
48667;SDS011;34453;52.198;5.004;2024-03-23T02:29:20;20.25;;;5.20;;
48667;SDS011;34453;52.198;5.004;2024-03-23T02:31:45;25.17;;;6.55;;
48667;SDS011;34453;52.198;5.004;2024-03-23T02:34:11;30.13;;;6.55;;
48667;SDS011;34453;52.198;5.004;2024-03-23T02:36:36;16.50;;;6.07;;
48667;SDS011;34453;52.198;5.004;2024-03-23T02:39:01;15.52;;;4.53;;
48667;SDS011;34453;52.198;5.004;2024-03-23T02:41:27;10.32;;;4.38;;
48667;SDS011;34453;52.198;5.004;2024-03-23T02:43:52;28.38;;;5.63;;
48667;SDS011;34453;52.198;5.004;2024-03-23T02:46:17;26.98;;;8.38;;
48667;SDS011;34453;52.198;5.004;2024-03-23T02:48:43;13.40;;;4.07;;
48667;SDS011;34453;52.198;5.004;2024-03-23T02:51:08;20.85;;;4.97;;
48667;SDS011;34453;52.198;5.004;2024-03-23T02:53:33;19.73;;;3.95;;
48667;SDS011;34453;52.198;5.004;2024-03-23T02:55:59;10.82;;;3.90;;
48667;SDS011;34453;52.198;5.004;2024-03-23T02:58:24;16.85;;;3.47;;
48667;SDS011;34453;52.198;5.004;2024-03-23T03:00:49;10.60;;;3.25;;
48667;SDS011;34453;52.198;5.004;2024-03-23T03:03:15;23.13;;;3.20;;
48667;SDS011;34453;52.198;5.004;2024-03-23T03:05:40;12.52;;;2.63;;
48667;SDS011;34453;52.198;5.004;2024-03-23T03:08:06;16.80;;;3.08;;
48667;SDS011;34453;52.198;5.004;2024-03-23T03:10:31;13.70;;;3.20;;
48667;SDS011;34453;52.198;5.004;2024-03-23T03:13:00;14.65;;;2.88;;
48667;SDS011;34453;52.198;5.004;2024-03-23T03:15:25;21.20;;;4.30;;
48667;SDS011;34453;52.198;5.004;2024-03-23T03:17:50;13.57;;;2.40;;
48667;SDS011;34453;52.198;5.004;2024-03-23T03:20:16;10.50;;;2.53;;
48667;SDS011;34453;52.198;5.004;2024-03-23T03:22:43;19.58;;;2.75;;
48667;SDS011;34453;52.198;5.004;2024-03-23T03:25:08;15.73;;;3.08;;
48667;SDS011;34453;52.198;5.004;2024-03-23T03:27:34;20.42;;;2.53;;
48667;SDS011;34453;52.198;5.004;2024-03-23T03:30:01;11.10;;;2.75;;
48667;SDS011;34453;52.198;5.004;2024-03-23T03:32:30;10.70;;;2.35;;
48667;SDS011;34453;52.198;5.004;2024-03-23T03:34:55;15.32;;;1.88;;
48667;SDS011;34453;52.198;5.004;2024-03-23T03:37:20;12.65;;;2.38;;
48667;SDS011;34453;52.198;5.004;2024-03-23T03:39:46;10.15;;;2.30;;
48667;SDS011;34453;52.198;5.004;2024-03-23T03:42:11;21.10;;;4.75;;
48667;SDS011;34453;52.198;5.004;2024-03-23T03:44:36;12.23;;;2.63;;
48667;SDS011;34453;52.198;5.004;2024-03-23T03:47:05;7.40;;;2.20;;
48667;SDS011;34453;52.198;5.004;2024-03-23T03:49:30;13.38;;;2.88;;
48667;SDS011;34453;52.198;5.004;2024-03-23T03:51:56;10.68;;;2.30;;
48667;SDS011;34453;52.198;5.004;2024-03-23T03:54:21;7.00;;;2.90;;
48667;SDS011;34453;52.198;5.004;2024-03-23T03:56:46;20.85;;;2.55;;
48667;SDS011;34453;52.198;5.004;2024-03-23T03:59:12;9.43;;;2.25;;
48667;SDS011;34453;52.198;5.004;2024-03-23T04:01:37;9.65;;;2.45;;
48667;SDS011;34453;52.198;5.004;2024-03-23T04:04:02;15.20;;;2.20;;
48667;SDS011;34453;52.198;5.004;2024-03-23T04:06:28;13.90;;;2.28;;
48667;SDS011;34453;52.198;5.004;2024-03-23T04:08:53;16.42;;;2.10;;
48667;SDS011;34453;52.198;5.004;2024-03-23T04:11:19;20.23;;;2.50;;
48667;SDS011;34453;52.198;5.004;2024-03-23T04:13:44;9.75;;;2.88;;
48667;SDS011;34453;52.198;5.004;2024-03-23T04:16:09;13.07;;;2.45;;
48667;SDS011;34453;52.198;5.004;2024-03-23T04:18:35;14.82;;;2.25;;
48667;SDS011;34453;52.198;5.004;2024-03-23T04:21:00;13.68;;;2.17;;
48667;SDS011;34453;52.198;5.004;2024-03-23T04:23:25;7.50;;;2.42;;
48667;SDS011;34453;52.198;5.004;2024-03-23T04:25:51;9.10;;;2.33;;
48667;SDS011;34453;52.198;5.004;2024-03-23T04:28:18;11.50;;;2.17;;
48667;SDS011;34453;52.198;5.004;2024-03-23T04:30:43;11.98;;;2.63;;
48667;SDS011;34453;52.198;5.004;2024-03-23T04:33:09;16.70;;;2.47;;
48667;SDS011;34453;52.198;5.004;2024-03-23T04:35:34;22.55;;;2.90;;
48667;SDS011;34453;52.198;5.004;2024-03-23T04:37:59;7.38;;;2.33;;
48667;SDS011;34453;52.198;5.004;2024-03-23T04:40:25;16.63;;;3.63;;
48667;SDS011;34453;52.198;5.004;2024-03-23T04:42:51;13.75;;;2.78;;
48667;SDS011;34453;52.198;5.004;2024-03-23T04:45:16;16.92;;;2.42;;
48667;SDS011;34453;52.198;5.004;2024-03-23T04:47:41;9.27;;;1.85;;
48667;SDS011;34453;52.198;5.004;2024-03-23T04:50:07;15.27;;;2.20;;
48667;SDS011;34453;52.198;5.004;2024-03-23T04:52:32;11.23;;;3.85;;
48667;SDS011;34453;52.198;5.004;2024-03-23T04:54:57;9.15;;;2.53;;
48667;SDS011;34453;52.198;5.004;2024-03-23T04:57:23;11.00;;;3.17;;
48667;SDS011;34453;52.198;5.004;2024-03-23T04:59:48;14.23;;;2.03;;
48667;SDS011;34453;52.198;5.004;2024-03-23T05:02:14;7.55;;;1.65;;
48667;SDS011;34453;52.198;5.004;2024-03-23T05:04:39;7.63;;;2.22;;
48667;SDS011;34453;52.198;5.004;2024-03-23T05:07:05;15.60;;;3.53;;
48667;SDS011;34453;52.198;5.004;2024-03-23T05:09:31;18.52;;;2.08;;
48667;SDS011;34453;52.198;5.004;2024-03-23T05:11:57;13.93;;;2.63;;
48667;SDS011;34453;52.198;5.004;2024-03-23T05:14:23;11.27;;;2.35;;
48667;SDS011;34453;52.198;5.004;2024-03-23T05:16:48;5.05;;;1.52;;
48667;SDS011;34453;52.198;5.004;2024-03-23T05:19:13;14.95;;;2.85;;
48667;SDS011;34453;52.198;5.004;2024-03-23T05:21:39;13.25;;;1.70;;
48667;SDS011;34453;52.198;5.004;2024-03-23T05:24:04;20.92;;;2.47;;
48667;SDS011;34453;52.198;5.004;2024-03-23T05:26:30;15.10;;;1.98;;
48667;SDS011;34453;52.198;5.004;2024-03-23T05:28:56;13.10;;;2.30;;
48667;SDS011;34453;52.198;5.004;2024-03-23T05:31:28;10.13;;;2.22;;
48667;SDS011;34453;52.198;5.004;2024-03-23T05:33:53;11.10;;;2.55;;
48667;SDS011;34453;52.198;5.004;2024-03-23T05:36:19;13.57;;;1.80;;
48667;SDS011;34453;52.198;5.004;2024-03-23T05:38:44;8.30;;;2.65;;
48667;SDS011;34453;52.198;5.004;2024-03-23T05:41:10;7.28;;;2.17;;
48667;SDS011;34453;52.198;5.004;2024-03-23T05:43:35;11.25;;;2.35;;
48667;SDS011;34453;52.198;5.004;2024-03-23T05:46:00;14.65;;;2.45;;
48667;SDS011;34453;52.198;5.004;2024-03-23T05:48:32;10.65;;;1.85;;
48667;SDS011;34453;52.198;5.004;2024-03-23T05:50:58;14.63;;;2.55;;
48667;SDS011;34453;52.198;5.004;2024-03-23T05:53:23;11.88;;;2.72;;
48667;SDS011;34453;52.198;5.004;2024-03-23T05:55:49;16.92;;;2.05;;
48667;SDS011;34453;52.198;5.004;2024-03-23T05:58:14;7.35;;;2.13;;
48667;SDS011;34453;52.198;5.004;2024-03-23T06:00:40;24.67;;;3.35;;
48667;SDS011;34453;52.198;5.004;2024-03-23T06:03:05;10.48;;;2.33;;
48667;SDS011;34453;52.198;5.004;2024-03-23T06:05:31;17.05;;;2.60;;
48667;SDS011;34453;52.198;5.004;2024-03-23T06:07:56;12.50;;;3.75;;
48667;SDS011;34453;52.198;5.004;2024-03-23T06:10:22;23.90;;;2.70;;
48667;SDS011;34453;52.198;5.004;2024-03-23T06:12:47;13.45;;;3.67;;
48667;SDS011;34453;52.198;5.004;2024-03-23T06:15:14;10.10;;;3.00;;
48667;SDS011;34453;52.198;5.004;2024-03-23T06:17:39;8.88;;;2.80;;
48667;SDS011;34453;52.198;5.004;2024-03-23T06:20:05;20.40;;;3.67;;
48667;SDS011;34453;52.198;5.004;2024-03-23T06:22:33;17.30;;;2.90;;
48667;SDS011;34453;52.198;5.004;2024-03-23T06:24:58;11.05;;;2.67;;
48667;SDS011;34453;52.198;5.004;2024-03-23T06:27:24;11.23;;;2.55;;
48667;SDS011;34453;52.198;5.004;2024-03-23T06:29:49;11.32;;;3.22;;
48667;SDS011;34453;52.198;5.004;2024-03-23T06:32:15;11.10;;;4.00;;
48667;SDS011;34453;52.198;5.004;2024-03-23T06:34:43;18.88;;;4.15;;
48667;SDS011;34453;52.198;5.004;2024-03-23T06:37:09;14.30;;;4.07;;
48667;SDS011;34453;52.198;5.004;2024-03-23T06:39:37;21.95;;;4.10;;
48667;SDS011;34453;52.198;5.004;2024-03-23T06:42:02;13.65;;;4.60;;
48667;SDS011;34453;52.198;5.004;2024-03-23T06:44:28;24.80;;;4.97;;
48667;SDS011;34453;52.198;5.004;2024-03-23T06:46:54;16.17;;;4.03;;
48667;SDS011;34453;52.198;5.004;2024-03-23T06:49:19;19.02;;;4.38;;
48667;SDS011;34453;52.198;5.004;2024-03-23T06:51:45;14.23;;;4.22;;
48667;SDS011;34453;52.198;5.004;2024-03-23T06:54:10;15.35;;;4.72;;
48667;SDS011;34453;52.198;5.004;2024-03-23T06:56:36;24.40;;;3.85;;
48667;SDS011;34453;52.198;5.004;2024-03-23T06:59:01;7.15;;;3.22;;
48667;SDS011;34453;52.198;5.004;2024-03-23T07:01:26;10.38;;;3.15;;
48667;SDS011;34453;52.198;5.004;2024-03-23T07:03:53;9.43;;;3.33;;
48667;SDS011;34453;52.198;5.004;2024-03-23T07:06:18;11.25;;;4.38;;
48667;SDS011;34453;52.198;5.004;2024-03-23T07:08:44;13.32;;;2.92;;
48667;SDS011;34453;52.198;5.004;2024-03-23T07:11:09;21.58;;;3.25;;
48667;SDS011;34453;52.198;5.004;2024-03-23T07:13:34;11.60;;;3.47;;
48667;SDS011;34453;52.198;5.004;2024-03-23T07:16:00;4.22;;;2.38;;
48667;SDS011;34453;52.198;5.004;2024-03-23T07:18:25;7.10;;;2.85;;
48667;SDS011;34453;52.198;5.004;2024-03-23T07:20:54;12.05;;;3.38;;
48667;SDS011;34453;52.198;5.004;2024-03-23T07:23:21;8.23;;;2.40;;
48667;SDS011;34453;52.198;5.004;2024-03-23T07:25:55;13.02;;;2.75;;
48667;SDS011;34453;52.198;5.004;2024-03-23T07:28:21;17.20;;;2.10;;
48667;SDS011;34453;52.198;5.004;2024-03-23T07:30:46;14.02;;;2.30;;
48667;SDS011;34453;52.198;5.004;2024-03-23T07:33:12;18.63;;;3.28;;
48667;SDS011;34453;52.198;5.004;2024-03-23T07:35:37;14.80;;;3.25;;
48667;SDS011;34453;52.198;5.004;2024-03-23T07:38:03;15.43;;;3.67;;
48667;SDS011;34453;52.198;5.004;2024-03-23T07:40:30;15.85;;;2.33;;
48667;SDS011;34453;52.198;5.004;2024-03-23T07:42:55;13.52;;;2.33;;
48667;SDS011;34453;52.198;5.004;2024-03-23T07:45:21;7.55;;;2.50;;
48667;SDS011;34453;52.198;5.004;2024-03-23T07:47:46;12.13;;;2.83;;
48667;SDS011;34453;52.198;5.004;2024-03-23T07:50:11;24.30;;;4.35;;
48667;SDS011;34453;52.198;5.004;2024-03-23T07:52:37;17.65;;;3.08;;
48667;SDS011;34453;52.198;5.004;2024-03-23T07:55:02;8.85;;;2.08;;
48667;SDS011;34453;52.198;5.004;2024-03-23T07:57:28;16.75;;;3.80;;
48667;SDS011;34453;52.198;5.004;2024-03-23T07:59:53;7.40;;;2.00;;
48667;SDS011;34453;52.198;5.004;2024-03-23T08:02:18;10.43;;;2.22;;
48667;SDS011;34453;52.198;5.004;2024-03-23T08:04:44;7.57;;;1.90;;
48667;SDS011;34453;52.198;5.004;2024-03-23T08:07:09;10.75;;;4.57;;
48667;SDS011;34453;52.198;5.004;2024-03-23T08:09:34;7.18;;;2.05;;
48667;SDS011;34453;52.198;5.004;2024-03-23T08:12:00;13.52;;;2.13;;
48667;SDS011;34453;52.198;5.004;2024-03-23T08:14:25;27.58;;;3.00;;
48667;SDS011;34453;52.198;5.004;2024-03-23T08:16:50;12.88;;;2.13;;
48667;SDS011;34453;52.198;5.004;2024-03-23T08:19:16;7.47;;;1.80;;
48667;SDS011;34453;52.198;5.004;2024-03-23T08:21:41;18.25;;;3.10;;
48667;SDS011;34453;52.198;5.004;2024-03-23T08:24:07;9.70;;;1.50;;
48667;SDS011;34453;52.198;5.004;2024-03-23T08:26:32;9.70;;;1.25;;
48667;SDS011;34453;52.198;5.004;2024-03-23T08:28:58;12.27;;;1.60;;
48667;SDS011;34453;52.198;5.004;2024-03-23T08:31:23;9.75;;;1.52;;
48667;SDS011;34453;52.198;5.004;2024-03-23T08:33:48;9.38;;;1.98;;
48667;SDS011;34453;52.198;5.004;2024-03-23T08:36:14;9.40;;;1.45;;
48667;SDS011;34453;52.198;5.004;2024-03-23T08:38:39;9.60;;;2.20;;
48667;SDS011;34453;52.198;5.004;2024-03-23T08:41:05;13.50;;;1.80;;
48667;SDS011;34453;52.198;5.004;2024-03-23T08:43:32;9.45;;;1.30;;
48667;SDS011;34453;52.198;5.004;2024-03-23T08:46:04;12.20;;;2.28;;
48667;SDS011;34453;52.198;5.004;2024-03-23T08:48:30;18.83;;;2.03;;
48667;SDS011;34453;52.198;5.004;2024-03-23T08:53:28;8.60;;;2.20;;
48667;SDS011;34453;52.198;5.004;2024-03-23T08:55:54;11.90;;;1.95;;
48667;SDS011;34453;52.198;5.004;2024-03-23T08:58:19;15.73;;;4.07;;
48667;SDS011;34453;52.198;5.004;2024-03-23T09:00:45;11.52;;;2.65;;
48667;SDS011;34453;52.198;5.004;2024-03-23T09:03:12;9.77;;;3.03;;
48667;SDS011;34453;52.198;5.004;2024-03-23T09:05:40;17.15;;;2.28;;
48667;SDS011;34453;52.198;5.004;2024-03-23T09:08:05;9.63;;;2.72;;
48667;SDS011;34453;52.198;5.004;2024-03-23T09:10:31;7.15;;;2.28;;
48667;SDS011;34453;52.198;5.004;2024-03-23T09:12:57;13.07;;;2.63;;
48667;SDS011;34453;52.198;5.004;2024-03-23T09:15:22;8.50;;;2.55;;
48667;SDS011;34453;52.198;5.004;2024-03-23T09:17:47;10.07;;;1.92;;
48667;SDS011;34453;52.198;5.004;2024-03-23T09:20:13;9.88;;;2.47;;
48667;SDS011;34453;52.198;5.004;2024-03-23T09:22:38;7.45;;;2.47;;
48667;SDS011;34453;52.198;5.004;2024-03-23T09:25:03;13.95;;;2.33;;
48667;SDS011;34453;52.198;5.004;2024-03-23T09:27:30;11.70;;;3.15;;
48667;SDS011;34453;52.198;5.004;2024-03-23T09:29:55;10.23;;;3.10;;
48667;SDS011;34453;52.198;5.004;2024-03-23T09:32:20;10.13;;;1.77;;
48667;SDS011;34453;52.198;5.004;2024-03-23T09:34:46;9.13;;;2.38;;
48667;SDS011;34453;52.198;5.004;2024-03-23T09:37:11;10.82;;;2.10;;
48667;SDS011;34453;52.198;5.004;2024-03-23T09:39:36;7.43;;;1.67;;
48667;SDS011;34453;52.198;5.004;2024-03-23T09:42:02;9.88;;;1.50;;
48667;SDS011;34453;52.198;5.004;2024-03-23T09:44:27;7.70;;;1.75;;
48667;SDS011;34453;52.198;5.004;2024-03-23T09:46:54;10.90;;;2.13;;
48667;SDS011;34453;52.198;5.004;2024-03-23T09:49:20;19.27;;;2.95;;
48667;SDS011;34453;52.198;5.004;2024-03-23T09:51:45;12.45;;;1.70;;
48667;SDS011;34453;52.198;5.004;2024-03-23T09:54:11;14.63;;;2.67;;
48667;SDS011;34453;52.198;5.004;2024-03-23T09:56:36;4.60;;;1.63;;
48667;SDS011;34453;52.198;5.004;2024-03-23T09:59:02;18.17;;;2.22;;
48667;SDS011;34453;52.198;5.004;2024-03-23T10:01:29;8.15;;;1.73;;
48667;SDS011;34453;52.198;5.004;2024-03-23T10:03:54;8.25;;;1.80;;
48667;SDS011;34453;52.198;5.004;2024-03-23T10:06:21;5.15;;;2.25;;
48667;SDS011;34453;52.198;5.004;2024-03-23T10:08:46;11.35;;;3.28;;
48667;SDS011;34453;52.198;5.004;2024-03-23T10:11:15;10.65;;;2.55;;
48667;SDS011;34453;52.198;5.004;2024-03-23T10:13:41;13.85;;;3.05;;
48667;SDS011;34453;52.198;5.004;2024-03-23T10:16:22;6.03;;;1.30;;
48667;SDS011;34453;52.198;5.004;2024-03-23T10:18:48;6.30;;;1.95;;
48667;SDS011;34453;52.198;5.004;2024-03-23T10:21:14;10.73;;;1.88;;
48667;SDS011;34453;52.198;5.004;2024-03-23T10:23:40;10.00;;;2.70;;
48667;SDS011;34453;52.198;5.004;2024-03-23T10:26:22;20.65;;;3.03;;
48667;SDS011;34453;52.198;5.004;2024-03-23T10:31:26;10.40;;;1.92;;
48667;SDS011;34453;52.198;5.004;2024-03-23T10:33:52;8.25;;;1.50;;
48667;SDS011;34453;52.198;5.004;2024-03-23T10:36:21;6.97;;;1.50;;
48667;SDS011;34453;52.198;5.004;2024-03-23T10:38:47;11.50;;;2.30;;
48667;SDS011;34453;52.198;5.004;2024-03-23T10:41:12;10.02;;;1.42;;
48667;SDS011;34453;52.198;5.004;2024-03-23T10:43:38;7.53;;;1.98;;
48667;SDS011;34453;52.198;5.004;2024-03-23T10:46:03;6.95;;;1.90;;
48667;SDS011;34453;52.198;5.004;2024-03-23T10:48:29;11.32;;;2.65;;
48667;SDS011;34453;52.198;5.004;2024-03-23T10:50:54;10.93;;;1.77;;
48667;SDS011;34453;52.198;5.004;2024-03-23T10:53:25;10.38;;;2.15;;
48667;SDS011;34453;52.198;5.004;2024-03-23T10:55:50;13.50;;;1.75;;
48667;SDS011;34453;52.198;5.004;2024-03-23T10:58:16;4.45;;;1.17;;
48667;SDS011;34453;52.198;5.004;2024-03-23T11:00:42;8.15;;;1.45;;
48667;SDS011;34453;52.198;5.004;2024-03-23T11:05:52;8.48;;;3.22;;
48667;SDS011;34453;52.198;5.004;2024-03-23T11:11:18;11.90;;;2.67;;
48667;SDS011;34453;52.198;5.004;2024-03-23T11:13:48;18.02;;;2.30;;
48667;SDS011;34453;52.198;5.004;2024-03-23T11:16:23;15.32;;;2.60;;
48667;SDS011;34453;52.198;5.004;2024-03-23T11:18:49;7.47;;;2.33;;
48667;SDS011;34453;52.198;5.004;2024-03-23T11:24:13;10.00;;;1.90;;
48667;SDS011;34453;52.198;5.004;2024-03-23T11:26:39;5.85;;;1.73;;
48667;SDS011;34453;52.198;5.004;2024-03-23T11:29:11;5.32;;;1.65;;
48667;SDS011;34453;52.198;5.004;2024-03-23T11:31:45;7.55;;;2.03;;
48667;SDS011;34453;52.198;5.004;2024-03-23T11:34:10;14.90;;;2.38;;
48667;SDS011;34453;52.198;5.004;2024-03-23T11:36:36;11.70;;;1.90;;
48667;SDS011;34453;52.198;5.004;2024-03-23T11:39:11;12.95;;;2.42;;
48667;SDS011;34453;52.198;5.004;2024-03-23T11:41:36;10.13;;;2.55;;
48667;SDS011;34453;52.198;5.004;2024-03-23T11:44:16;8.20;;;2.33;;
48667;SDS011;34453;52.198;5.004;2024-03-23T11:46:41;15.18;;;2.20;;
48667;SDS011;34453;52.198;5.004;2024-03-23T11:49:07;13.80;;;3.25;;
48667;SDS011;34453;52.198;5.004;2024-03-23T11:51:44;12.35;;;2.53;;
48667;SDS011;34453;52.198;5.004;2024-03-23T11:54:09;4.55;;;1.33;;
48667;SDS011;34453;52.198;5.004;2024-03-23T11:56:34;10.80;;;2.05;;
48667;SDS011;34453;52.198;5.004;2024-03-23T11:59:00;8.98;;;1.75;;
48667;SDS011;34453;52.198;5.004;2024-03-23T12:01:25;14.18;;;2.22;;
48667;SDS011;34453;52.198;5.004;2024-03-23T12:03:50;14.82;;;3.22;;
48667;SDS011;34453;52.198;5.004;2024-03-23T12:06:19;6.72;;;1.85;;
48667;SDS011;34453;52.198;5.004;2024-03-23T12:08:44;6.20;;;1.85;;
48667;SDS011;34453;52.198;5.004;2024-03-23T12:11:13;9.90;;;1.98;;
48667;SDS011;34453;52.198;5.004;2024-03-23T12:13:40;5.78;;;2.42;;
48667;SDS011;34453;52.198;5.004;2024-03-23T12:18:39;6.03;;;1.33;;
48667;SDS011;34453;52.198;5.004;2024-03-23T12:21:05;7.90;;;1.83;;
48667;SDS011;34453;52.198;5.004;2024-03-23T12:23:30;7.38;;;2.15;;
48667;SDS011;34453;52.198;5.004;2024-03-23T12:25:56;5.78;;;1.60;;
48667;SDS011;34453;52.198;5.004;2024-03-23T12:28:21;9.00;;;2.28;;
48667;SDS011;34453;52.198;5.004;2024-03-23T12:30:47;10.50;;;2.25;;
48667;SDS011;34453;52.198;5.004;2024-03-23T12:33:12;6.32;;;1.60;;
48667;SDS011;34453;52.198;5.004;2024-03-23T12:35:37;14.15;;;1.67;;
48667;SDS011;34453;52.198;5.004;2024-03-23T12:38:03;18.58;;;2.90;;
48667;SDS011;34453;52.198;5.004;2024-03-23T12:40:28;6.68;;;1.10;;
48667;SDS011;34453;52.198;5.004;2024-03-23T12:42:53;13.38;;;2.40;;
48667;SDS011;34453;52.198;5.004;2024-03-23T12:45:19;6.47;;;1.75;;
48667;SDS011;34453;52.198;5.004;2024-03-23T12:47:44;13.07;;;3.28;;
48667;SDS011;34453;52.198;5.004;2024-03-23T12:50:10;8.38;;;2.25;;
48667;SDS011;34453;52.198;5.004;2024-03-23T12:52:36;9.52;;;1.67;;
48667;SDS011;34453;52.198;5.004;2024-03-23T12:55:01;7.80;;;2.47;;
48667;SDS011;34453;52.198;5.004;2024-03-23T12:57:28;10.60;;;1.92;;
48667;SDS011;34453;52.198;5.004;2024-03-23T12:59:54;5.53;;;2.08;;
48667;SDS011;34453;52.198;5.004;2024-03-23T13:02:20;4.32;;;1.50;;
48667;SDS011;34453;52.198;5.004;2024-03-23T13:04:52;6.72;;;1.58;;
48667;SDS011;34453;52.198;5.004;2024-03-23T13:07:18;4.47;;;1.48;;
48667;SDS011;34453;52.198;5.004;2024-03-23T13:09:43;5.95;;;1.95;;
48667;SDS011;34453;52.198;5.004;2024-03-23T13:12:09;6.55;;;1.92;;
48667;SDS011;34453;52.198;5.004;2024-03-23T13:14:34;9.73;;;1.80;;
48667;SDS011;34453;52.198;5.004;2024-03-23T13:16:59;11.52;;;1.63;;
48667;SDS011;34453;52.198;5.004;2024-03-23T13:19:25;19.45;;;1.63;;
48667;SDS011;34453;52.198;5.004;2024-03-23T13:21:53;3.17;;;1.40;;
48667;SDS011;34453;52.198;5.004;2024-03-23T13:24:21;7.95;;;1.92;;
48667;SDS011;34453;52.198;5.004;2024-03-23T13:26:49;8.27;;;1.55;;
48667;SDS011;34453;52.198;5.004;2024-03-23T13:29:14;5.78;;;1.35;;
48667;SDS011;34453;52.198;5.004;2024-03-23T13:31:39;10.55;;;1.98;;
48667;SDS011;34453;52.198;5.004;2024-03-23T13:34:05;5.82;;;1.77;;
48667;SDS011;34453;52.198;5.004;2024-03-23T13:36:30;10.65;;;2.33;;
48667;SDS011;34453;52.198;5.004;2024-03-23T13:38:55;10.55;;;1.75;;
48667;SDS011;34453;52.198;5.004;2024-03-23T13:41:21;8.30;;;1.92;;
48667;SDS011;34453;52.198;5.004;2024-03-23T13:43:46;17.00;;;2.63;;
48667;SDS011;34453;52.198;5.004;2024-03-23T13:46:11;10.07;;;1.40;;
48667;SDS011;34453;52.198;5.004;2024-03-23T13:48:37;6.43;;;1.00;;
48667;SDS011;34453;52.198;5.004;2024-03-23T13:51:03;6.32;;;1.73;;
48667;SDS011;34453;52.198;5.004;2024-03-23T13:53:28;4.38;;;1.63;;
48667;SDS011;34453;52.198;5.004;2024-03-23T13:55:54;11.82;;;1.38;;
48667;SDS011;34453;52.198;5.004;2024-03-23T13:58:19;5.13;;;1.55;;
48667;SDS011;34453;52.198;5.004;2024-03-23T14:00:45;6.30;;;1.40;;
48667;SDS011;34453;52.198;5.004;2024-03-23T14:03:11;9.13;;;1.42;;
48667;SDS011;34453;52.198;5.004;2024-03-23T14:05:36;6.43;;;1.10;;
48667;SDS011;34453;52.198;5.004;2024-03-23T14:08:04;10.20;;;3.30;;
48667;SDS011;34453;52.198;5.004;2024-03-23T14:10:30;4.20;;;1.80;;
48667;SDS011;34453;52.198;5.004;2024-03-23T14:12:55;4.95;;;1.45;;
48667;SDS011;34453;52.198;5.004;2024-03-23T14:15:20;5.05;;;1.10;;
48667;SDS011;34453;52.198;5.004;2024-03-23T14:17:45;1.95;;;1.48;;
48667;SDS011;34453;52.198;5.004;2024-03-23T14:20:11;4.65;;;1.20;;
48667;SDS011;34453;52.198;5.004;2024-03-23T14:22:38;4.90;;;1.38;;
48667;SDS011;34453;52.198;5.004;2024-03-23T14:25:06;15.55;;;1.98;;
48667;SDS011;34453;52.198;5.004;2024-03-23T14:27:31;5.45;;;1.65;;
48667;SDS011;34453;52.198;5.004;2024-03-23T14:29:57;11.68;;;1.92;;
48667;SDS011;34453;52.198;5.004;2024-03-23T14:32:22;9.82;;;1.48;;
48667;SDS011;34453;52.198;5.004;2024-03-23T14:34:47;11.32;;;1.65;;
48667;SDS011;34453;52.198;5.004;2024-03-23T14:37:13;5.65;;;1.80;;
48667;SDS011;34453;52.198;5.004;2024-03-23T14:39:41;12.68;;;2.53;;
48667;SDS011;34453;52.198;5.004;2024-03-23T14:42:06;3.50;;;1.40;;
48667;SDS011;34453;52.198;5.004;2024-03-23T14:44:33;13.07;;;2.80;;
48667;SDS011;34453;52.198;5.004;2024-03-23T14:46:58;3.72;;;1.25;;
48667;SDS011;34453;52.198;5.004;2024-03-23T14:49:24;7.28;;;1.63;;
48667;SDS011;34453;52.198;5.004;2024-03-23T14:51:49;4.35;;;1.30;;
48667;SDS011;34453;52.198;5.004;2024-03-23T14:54:15;17.75;;;2.70;;
48667;SDS011;34453;52.198;5.004;2024-03-23T14:56:40;6.32;;;3.00;;
48667;SDS011;34453;52.198;5.004;2024-03-23T14:59:06;11.18;;;1.90;;
48667;SDS011;34453;52.198;5.004;2024-03-23T15:01:32;10.25;;;2.38;;
48667;SDS011;34453;52.198;5.004;2024-03-23T15:03:57;3.83;;;1.30;;
48667;SDS011;34453;52.198;5.004;2024-03-23T15:06:23;3.13;;;1.58;;
48667;SDS011;34453;52.198;5.004;2024-03-23T15:08:48;9.20;;;1.95;;
48667;SDS011;34453;52.198;5.004;2024-03-23T15:11:14;5.90;;;1.48;;
48667;SDS011;34453;52.198;5.004;2024-03-23T15:13:39;14.65;;;3.10;;
48667;SDS011;34453;52.198;5.004;2024-03-23T15:16:05;14.25;;;2.90;;
48667;SDS011;34453;52.198;5.004;2024-03-23T15:18:31;5.38;;;1.42;;
48667;SDS011;34453;52.198;5.004;2024-03-23T15:20:57;12.38;;;2.22;;
48667;SDS011;34453;52.198;5.004;2024-03-23T15:23:23;8.00;;;2.10;;
48667;SDS011;34453;52.198;5.004;2024-03-23T15:25:55;9.25;;;1.38;;
48667;SDS011;34453;52.198;5.004;2024-03-23T15:28:23;10.27;;;2.47;;
48667;SDS011;34453;52.198;5.004;2024-03-23T15:30:51;4.20;;;1.15;;
48667;SDS011;34453;52.198;5.004;2024-03-23T15:33:17;10.50;;;1.42;;
48667;SDS011;34453;52.198;5.004;2024-03-23T15:35:42;7.60;;;1.35;;
48667;SDS011;34453;52.198;5.004;2024-03-23T15:38:08;8.32;;;1.20;;